Time;durP1;ratioP1;P1;durP2;ratioP2;P2;SDS_P1;SDS_P2;PMS_P1;PMS_P2;Temp;Humidity;BMP_temperature;BMP_pressure;BME280_temperature;BME280_humidity;BME280_pressure;Samples;Min_cycle;Max_cycle;Signal;HPM_P1;HPM_P2
2021/09/13 00:01:03;;;;;;;9.02;5.85;;;15.10;99.90;;;;;;4140837;28;20092;-67
2021/09/13 00:03:04;;;;;;;5.80;5.00;;;15.00;99.90;;;;;;4140255;28;20041;-66
2021/09/13 00:05:06;;;;;;;9.63;5.82;;;15.00;99.90;;;;;;4140032;28;20077;-68
2021/09/13 00:07:07;;;;;;;8.30;5.80;;;15.00;99.90;;;;;;4140606;28;20438;-68
2021/09/13 00:09:08;;;;;;;9.25;5.85;;;15.00;99.90;;;;;;4140554;28;20072;-67
2021/09/13 00:11:09;;;;;;;7.90;5.72;;;15.00;99.90;;;;;;4140028;28;20581;-70
2021/09/13 00:13:11;;;;;;;8.35;5.03;;;15.00;99.90;;;;;;4140575;28;20049;-66
2021/09/13 00:15:12;;;;;;;8.57;5.60;;;15.00;99.90;;;;;;4140402;28;20527;-71
2021/09/13 00:17:13;;;;;;;8.10;6.03;;;14.90;99.90;;;;;;4140260;28;20037;-65
2021/09/13 00:19:14;;;;;;;7.45;5.57;;;14.90;99.90;;;;;;4139616;28;20431;-68
2021/09/13 00:21:15;;;;;;;10.13;5.70;;;14.80;99.90;;;;;;4140633;28;20084;-71
2021/09/13 00:23:16;;;;;;;7.20;5.50;;;14.80;99.90;;;;;;4138285;28;20042;-71
2021/09/13 00:25:17;;;;;;;10.25;5.72;;;14.80;99.90;;;;;;4141153;28;20033;-67
2021/09/13 00:27:19;;;;;;;7.35;5.15;;;14.80;99.90;;;;;;4140232;28;20379;-70
2021/09/13 00:29:21;;;;;;;7.13;5.40;;;14.80;99.90;;;;;;4140415;28;20107;-68
2021/09/13 00:31:22;;;;;;;8.20;5.25;;;14.90;99.90;;;;;;4140282;28;20068;-68
2021/09/13 00:33:23;;;;;;;7.22;4.93;;;14.90;99.90;;;;;;4138826;28;20072;-71
2021/09/13 00:35:25;;;;;;;7.18;4.75;;;14.90;99.90;;;;;;4139887;28;20095;-66
2021/09/13 00:37:26;;;;;;;5.25;4.72;;;15.00;99.90;;;;;;4138554;28;20038;-70
2021/09/13 00:39:28;;;;;;;7.72;4.90;;;15.00;99.90;;;;;;4140281;28;20033;-69
2021/09/13 00:41:29;;;;;;;7.03;4.93;;;14.90;99.90;;;;;;4138524;28;20034;-69
2021/09/13 00:43:31;;;;;;;6.95;5.18;;;14.90;99.90;;;;;;4140102;28;20088;-69
2021/09/13 00:45:32;;;;;;;7.05;5.10;;;14.90;99.90;;;;;;4140376;28;20046;-69
2021/09/13 00:47:34;;;;;;;6.43;5.00;;;14.90;99.90;;;;;;4140216;28;20046;-71
2021/09/13 00:49:35;;;;;;;7.38;4.70;;;14.90;99.90;;;;;;4138915;28;20030;-68
2021/09/13 00:51:36;;;;;;;7.43;5.35;;;14.90;99.90;;;;;;4140539;28;20034;-67
2021/09/13 00:53:38;;;;;;;7.78;5.25;;;14.80;99.90;;;;;;4139648;28;20526;-71
2021/09/13 00:55:39;;;;;;;8.57;4.82;;;14.80;99.90;;;;;;4140460;28;20030;-70
2021/09/13 00:57:41;;;;;;;7.55;4.80;;;14.80;99.90;;;;;;4139321;28;20445;-69
2021/09/13 00:59:42;;;;;;;10.95;5.43;;;14.80;99.90;;;;;;4139775;28;20108;-69
2021/09/13 01:01:43;;;;;;;9.68;5.18;;;14.80;99.90;;;;;;4139899;28;20038;-69
2021/09/13 01:03:44;;;;;;;10.10;5.75;;;14.80;99.90;;;;;;4139962;28;20041;-72
2021/09/13 01:05:46;;;;;;;9.27;5.90;;;14.70;99.90;;;;;;4139828;28;20702;-70
2021/09/13 01:07:47;;;;;;;9.27;5.25;;;14.60;99.90;;;;;;4139925;28;20643;-69
2021/09/13 01:09:48;;;;;;;10.13;5.13;;;14.60;99.90;;;;;;4138574;28;20046;-69
2021/09/13 01:11:50;;;;;;;8.80;5.57;;;14.40;99.90;;;;;;4139442;28;20434;-69
2021/09/13 01:13:51;;;;;;;7.55;5.47;;;14.40;99.90;;;;;;4139866;28;20088;-67
2021/09/13 01:15:53;;;;;;;7.90;5.32;;;14.30;99.90;;;;;;4139789;28;21156;-71
2021/09/13 01:17:54;;;;;;;8.48;5.97;;;14.20;99.90;;;;;;4139942;28;20445;-65
2021/09/13 01:19:55;;;;;;;11.37;5.37;;;14.20;99.90;;;;;;4139134;28;20018;-71
2021/09/13 01:21:59;;;;;;;8.60;5.03;;;14.10;99.90;;;;;;4140099;28;20034;-71
2021/09/13 01:24:00;;;;;;;7.72;5.40;;;14.00;99.90;;;;;;4139001;28;20034;-68
2021/09/13 01:26:03;;;;;;;9.93;5.57;;;14.00;99.90;;;;;;4140061;28;20084;-65
2021/09/13 01:28:04;;;;;;;10.07;5.83;;;14.00;99.90;;;;;;4138898;28;20414;-68
2021/09/13 01:30:06;;;;;;;10.83;6.20;;;14.00;99.90;;;;;;4139761;28;20092;-70
2021/09/13 01:32:08;;;;;;;9.27;5.23;;;14.00;99.90;;;;;;4139447;28;20034;-71
2021/09/13 01:34:09;;;;;;;7.37;5.40;;;14.00;99.90;;;;;;4138883;28;20469;-68
2021/09/13 01:36:10;;;;;;;15.13;6.10;;;13.90;99.90;;;;;;4139450;28;20076;-67
2021/09/13 01:38:11;;;;;;;9.43;5.80;;;13.90;99.90;;;;;;4139584;28;20469;-71
2021/09/13 01:40:13;;;;;;;11.60;6.37;;;13.80;99.90;;;;;;4139544;28;20469;-70
2021/09/13 01:42:14;;;;;;;10.07;6.33;;;13.70;99.90;;;;;;4139674;28;20950;-67
2021/09/13 01:44:16;;;;;;;12.37;5.53;;;13.60;99.90;;;;;;4139665;28;20068;-71
2021/09/13 01:46:17;;;;;;;10.20;5.93;;;13.60;99.90;;;;;;4139704;28;20038;-69
2021/09/13 01:48:18;;;;;;;8.77;5.77;;;13.50;99.90;;;;;;4139873;28;20430;-72
2021/09/13 01:50:21;;;;;;;18.87;5.80;;;13.50;99.90;;;;;;4138720;28;20137;-70
2021/09/13 01:52:22;;;;;;;8.97;6.03;;;13.50;99.90;;;;;;4139166;28;20791;-68
2021/09/13 01:54:23;;;;;;;8.80;5.37;;;13.50;99.90;;;;;;4137460;28;20042;-68
2021/09/13 01:56:25;;;;;;;11.03;5.63;;;13.50;99.90;;;;;;4140107;28;20055;-70
2021/09/13 01:58:26;;;;;;;8.77;5.10;;;13.60;99.90;;;;;;4138454;28;20026;-69
2021/09/13 02:00:27;;;;;;;8.50;6.00;;;13.60;99.90;;;;;;4138981;28;20084;-68
2021/09/13 02:02:28;;;;;;;9.33;5.37;;;13.60;99.90;;;;;;4139353;28;20022;-71
2021/09/13 02:04:30;;;;;;;9.13;5.27;;;13.60;99.90;;;;;;4139725;28;20053;-69
2021/09/13 02:06:31;;;;;;;7.43;5.90;;;13.60;99.90;;;;;;4139265;28;20104;-68
2021/09/13 02:08:32;;;;;;;9.43;6.00;;;13.50;99.90;;;;;;4137790;28;20108;-69
2021/09/13 02:10:34;;;;;;;9.43;5.23;;;13.50;99.90;;;;;;4137882;28;20049;-69
2021/09/13 02:12:35;;;;;;;14.00;5.50;;;13.40;99.90;;;;;;4138929;28;20437;-67
2021/09/13 02:14:36;;;;;;;9.47;5.10;;;13.30;99.90;;;;;;4139096;28;20097;-70
2021/09/13 02:16:37;;;;;;;12.60;5.73;;;13.30;99.90;;;;;;4139626;28;20025;-71
2021/09/13 02:18:39;;;;;;;8.47;5.87;;;13.20;99.90;;;;;;4138738;28;20076;-69
2021/09/13 02:20:40;;;;;;;9.73;5.97;;;13.20;99.90;;;;;;4138387;28;20536;-69
2021/09/13 02:22:41;;;;;;;7.73;6.20;;;13.20;99.90;;;;;;4139477;28;20030;-68
2021/09/13 02:24:42;;;;;;;8.80;5.83;;;13.10;99.90;;;;;;4138721;28;20022;-70
2021/09/13 02:26:43;;;;;;;8.10;5.40;;;13.00;99.90;;;;;;4139598;28;20378;-70
2021/09/13 02:28:45;;;;;;;12.40;7.37;;;13.00;99.90;;;;;;4141309;28;20045;-66
2021/09/13 02:30:46;;;;;;;10.77;6.50;;;13.00;99.90;;;;;;4142576;28;20100;-69
2021/09/13 02:32:47;;;;;;;9.97;5.80;;;13.10;99.90;;;;;;4141877;28;20026;-67
2021/09/13 02:34:48;;;;;;;7.10;5.33;;;13.00;99.90;;;;;;4142642;28;20037;-70
2021/09/13 02:36:50;;;;;;;13.10;5.67;;;13.10;99.90;;;;;;4142166;28;20430;-67
2021/09/13 02:38:51;;;;;;;10.67;6.33;;;13.10;99.90;;;;;;4141751;28;20383;-69
2021/09/13 02:40:52;;;;;;;12.53;7.47;;;13.00;99.90;;;;;;4141858;28;20038;-70
2021/09/13 02:42:53;;;;;;;12.97;10.13;;;13.00;99.90;;;;;;4141312;28;20045;-71
2021/09/13 02:44:54;;;;;;;15.77;9.33;;;12.90;99.90;;;;;;4142019;28;20111;-69
2021/09/13 02:46:56;;;;;;;10.57;6.80;;;12.80;99.90;;;;;;4141964;28;20480;-70
2021/09/13 02:48:57;;;;;;;12.07;7.00;;;12.80;99.90;;;;;;4141408;28;20143;-67
2021/09/13 02:50:58;;;;;;;12.30;7.07;;;12.70;99.90;;;;;;4140979;28;20088;-69
2021/09/13 02:52:59;;;;;;;13.33;6.70;;;12.60;99.90;;;;;;4142162;28;20104;-71
2021/09/13 02:55:00;;;;;;;10.47;6.33;;;12.50;99.90;;;;;;4141481;28;20608;-70
2021/09/13 02:57:02;;;;;;;15.03;7.43;;;12.40;99.90;;;;;;4141914;28;20092;-71
2021/09/13 02:59:03;;;;;;;12.27;7.70;;;12.30;99.90;;;;;;4141014;28;20503;-67
2021/09/13 03:01:04;;;;;;;16.40;7.80;;;12.20;99.90;;;;;;4142026;28;20080;-70
2021/09/13 03:03:05;;;;;;;13.20;7.67;;;12.20;99.90;;;;;;4140977;28;20046;-67
2021/09/13 03:05:07;;;;;;;12.77;8.23;;;12.20;99.90;;;;;;4141404;28;20050;-68
2021/09/13 03:07:08;;;;;;;21.03;8.17;;;12.20;99.90;;;;;;4141535;28;20475;-69
2021/09/13 03:09:09;;;;;;;18.43;7.73;;;12.20;99.90;;;;;;4141694;28;20069;-69
2021/09/13 03:11:10;;;;;;;12.40;7.90;;;12.10;99.90;;;;;;4140989;28;20538;-67
2021/09/13 03:13:13;;;;;;;22.77;9.03;;;12.10;99.90;;;;;;4141558;28;20038;-67
2021/09/13 03:15:14;;;;;;;14.03;8.03;;;12.10;99.90;;;;;;4141181;28;20100;-69
2021/09/13 03:17:15;;;;;;;12.77;8.17;;;12.10;99.90;;;;;;4141891;28;20026;-70
2021/09/13 03:19:16;;;;;;;14.00;8.47;;;12.10;99.90;;;;;;4141179;28;20093;-69
2021/09/13 03:21:17;;;;;;;18.03;8.00;;;12.10;99.90;;;;;;4141343;28;20052;-72
2021/09/13 03:23:19;;;;;;;16.87;8.20;;;12.00;99.90;;;;;;4141524;28;20072;-70
2021/09/13 03:25:20;;;;;;;16.20;8.07;;;11.90;99.90;;;;;;4141045;28;20104;-70
2021/09/13 03:27:21;;;;;;;12.93;8.67;;;12.00;99.90;;;;;;4141736;28;20029;-68
2021/09/13 03:29:22;;;;;;;13.00;8.50;;;12.00;99.90;;;;;;4139042;28;20038;-68
2021/09/13 03:31:23;;;;;;;14.33;8.10;;;12.00;99.90;;;;;;4140837;28;20049;-71
2021/09/13 03:33:24;;;;;;;13.27;8.93;;;12.00;99.90;;;;;;4140664;28;20429;-71
2021/09/13 03:35:25;;;;;;;13.73;8.70;;;12.00;99.90;;;;;;4141073;28;20037;-70
2021/09/13 03:37:26;;;;;;;14.60;8.00;;;12.00;99.90;;;;;;4141280;28;20033;-70
2021/09/13 03:39:28;;;;;;;17.83;8.10;;;12.00;99.90;;;;;;4140513;28;20030;-71
2021/09/13 03:41:29;;;;;;;16.57;8.87;;;12.00;99.90;;;;;;4141050;28;20084;-71
2021/09/13 03:43:30;;;;;;;16.70;8.80;;;11.90;99.90;;;;;;4140570;28;20104;-71
2021/09/13 03:45:31;;;;;;;18.87;9.27;;;11.90;99.90;;;;;;4140632;28;20042;-68
2021/09/13 03:47:32;;;;;;;15.83;8.70;;;11.90;99.90;;;;;;4140857;28;20069;-67
2021/09/13 03:49:33;;;;;;;18.33;10.00;;;11.80;99.90;;;;;;4140677;28;20042;-65
2021/09/13 03:51:34;;;;;;;19.37;9.63;;;11.90;99.90;;;;;;4140249;28;20092;-67
2021/09/13 03:53:35;;;;;;;16.93;8.60;;;11.80;99.90;;;;;;4140733;28;20095;-67
2021/09/13 03:55:36;;;;;;;21.63;8.47;;;11.80;99.90;;;;;;4140408;28;20092;-66
2021/09/13 03:57:38;;;;;;;12.20;8.97;;;11.70;99.90;;;;;;4141157;28;20037;-70
2021/09/13 03:59:39;;;;;;;17.57;9.07;;;11.70;99.90;;;;;;4139792;28;20832;-69
2021/09/13 04:01:41;;;;;;;13.67;8.60;;;11.70;99.90;;;;;;4139445;28;20038;-66
2021/09/13 04:03:47;;;;;;;20.97;8.77;;;11.70;99.90;;;;;;4139633;28;20030;-70
2021/09/13 04:05:50;;;;;;;16.67;9.23;;;11.70;99.90;;;;;;4137306;28;20136;-66
2021/09/13 04:10:11;;;;;;;18.27;8.90;;;11.70;99.90;;;;;;4140111;28;20025;-68
2021/09/13 04:12:12;;;;;;;13.87;8.20;;;11.80;99.90;;;;;;4139812;28;20041;-68
2021/09/13 04:14:14;;;;;;;15.83;8.90;;;11.80;99.90;;;;;;4139786;28;20042;-67
2021/09/13 04:16:16;;;;;;;15.27;9.40;;;11.80;99.90;;;;;;4140118;28;20030;-69
2021/09/13 04:18:17;;;;;;;18.53;8.10;;;11.80;99.90;;;;;;4138601;28;20053;-67
2021/09/13 04:20:18;;;;;;;21.27;8.73;;;11.80;99.90;;;;;;4139796;28;20042;-66
2021/09/13 04:22:19;;;;;;;16.97;8.87;;;11.90;99.90;;;;;;4139087;28;20483;-65
2021/09/13 04:24:21;;;;;;;20.20;8.40;;;12.00;99.90;;;;;;4138653;28;20100;-66
2021/09/13 04:26:22;;;;;;;17.93;8.67;;;12.10;99.90;;;;;;4138923;28;20050;-67
2021/09/13 04:28:23;;;;;;;14.57;7.77;;;12.10;99.90;;;;;;4137259;28;20045;-66
2021/09/13 04:30:25;;;;;;;14.17;7.97;;;12.10;99.90;;;;;;4123830;28;20113;-66
2021/09/13 04:32:27;;;;;;;17.63;8.30;;;12.20;99.90;;;;;;4139565;28;20046;-68
2021/09/13 04:34:28;;;;;;;17.23;8.37;;;12.30;99.90;;;;;;4138542;28;20115;-66
2021/09/13 04:36:29;;;;;;;23.60;8.17;;;12.40;99.90;;;;;;4139705;28;20049;-68
2021/09/13 04:38:30;;;;;;;16.90;8.17;;;12.50;99.90;;;;;;4139039;28;20549;-70
2021/09/13 04:40:31;;;;;;;13.77;7.60;;;12.60;99.90;;;;;;4139177;28;20046;-69
2021/09/13 04:42:33;;;;;;;17.57;8.03;;;12.60;99.90;;;;;;4139318;28;20038;-69
2021/09/13 04:44:35;;;;;;;15.40;8.87;;;12.70;99.90;;;;;;4139774;28;20030;-67
2021/09/13 04:46:37;;;;;;;17.07;7.90;;;12.80;99.90;;;;;;4139832;28;20092;-70
2021/09/13 04:48:38;;;;;;;14.93;8.33;;;13.00;99.90;;;;;;4139256;28;20560;-69
2021/09/13 04:50:39;;;;;;;18.63;7.27;;;13.20;99.90;;;;;;4138594;28;20885;-73
2021/09/13 04:52:40;;;;;;;26.57;8.57;;;13.50;99.90;;;;;;4139561;28;20108;-68
2021/09/13 04:54:41;;;;;;;20.60;9.43;;;13.80;99.90;;;;;;4139142;28;20045;-68
2021/09/13 04:56:43;;;;;;;18.60;8.07;;;14.10;99.90;;;;;;4138702;28;20088;-68
2021/09/13 04:58:44;;;;;;;17.27;8.23;;;14.50;99.90;;;;;;4139580;28;20046;-69
2021/09/13 05:00:45;;;;;;;19.07;8.43;;;14.90;99.90;;;;;;4138515;28;20038;-72
2021/09/13 05:02:46;;;;;;;25.57;8.67;;;15.20;99.90;;;;;;4139054;28;20042;-68
2021/09/13 05:04:48;;;;;;;29.33;9.90;;;15.40;99.90;;;;;;4138203;28;20438;-68
2021/09/13 05:06:49;;;;;;;29.50;8.30;;;15.80;99.90;;;;;;4138685;28;20029;-67
2021/09/13 05:08:50;;;;;;;28.05;8.88;;;16.10;99.90;;;;;;4138466;28;20525;-68
2021/09/13 05:10:51;;;;;;;20.95;7.95;;;16.40;99.90;;;;;;4139211;28;20033;-68
2021/09/13 05:12:52;;;;;;;18.00;8.13;;;16.80;99.90;;;;;;4139056;28;20100;-68
2021/09/13 05:14:54;;;;;;;15.40;7.43;;;17.20;99.90;;;;;;4139154;28;20038;-67
2021/09/13 05:16:55;;;;;;;13.32;7.25;;;17.50;99.90;;;;;;4139639;28;20069;-69
2021/09/13 05:18:56;;;;;;;20.63;7.65;;;17.70;99.90;;;;;;4139123;28;20034;-68
2021/09/13 05:20:57;;;;;;;13.30;7.35;;;18.00;99.90;;;;;;4137674;28;20076;-68
2021/09/13 05:22:59;;;;;;;12.35;7.32;;;18.20;99.90;;;;;;4139195;28;20033;-68
2021/09/13 05:25:01;;;;;;;20.55;6.57;;;18.40;99.90;;;;;;4138732;28;20033;-69
2021/09/13 05:27:02;;;;;;;16.42;7.15;;;18.70;99.90;;;;;;4138975;28;20588;-69
2021/09/13 05:29:03;;;;;;;18.98;7.40;;;19.00;99.90;;;;;;4138969;28;20037;-68
2021/09/13 05:31:04;;;;;;;11.93;6.53;;;19.40;99.90;;;;;;4139010;28;20037;-68
2021/09/13 05:33:06;;;;;;;19.02;7.35;;;19.40;99.90;;;;;;4139884;28;20104;-68
2021/09/13 05:35:07;;;;;;;15.40;7.00;;;19.70;99.90;;;;;;4137278;28;20470;-68
2021/09/13 05:37:08;;;;;;;19.60;7.15;;;20.10;99.90;;;;;;4139272;28;20433;-70
2021/09/13 05:39:10;;;;;;;21.52;7.10;;;20.50;99.90;;;;;;4138751;28;20026;-68
2021/09/13 05:41:12;;;;;;;24.02;7.93;;;20.60;99.90;;;;;;4139504;28;20029;-69
2021/09/13 05:43:13;;;;;;;13.48;7.25;;;20.50;99.90;;;;;;4138380;28;20065;-66
2021/09/13 05:45:14;;;;;;;18.50;7.75;;;20.40;99.90;;;;;;4139091;28;20053;-68
2021/09/13 05:47:15;;;;;;;29.27;8.07;;;20.40;99.90;;;;;;4139237;28;20026;-68
2021/09/13 05:49:17;;;;;;;20.48;8.02;;;20.60;99.90;;;;;;4138694;28;20407;-67
2021/09/13 05:51:18;;;;;;;24.77;8.13;;;20.50;99.90;;;;;;4138608;28;20646;-68
2021/09/13 05:53:20;;;;;;;29.35;9.02;;;20.40;99.90;;;;;;4139101;28;20084;-66
2021/09/13 05:55:21;;;;;;;22.20;8.57;;;20.20;99.90;;;;;;4137594;28;20446;-69
2021/09/13 05:57:22;;;;;;;22.67;9.00;;;20.60;99.90;;;;;;4138942;28;20034;-67
2021/09/13 05:59:25;;;;;;;26.52;8.82;;;20.80;99.50;;;;;;4139083;28;20049;-69
2021/09/13 06:01:26;;;;;;;33.10;8.75;;;21.00;99.00;;;;;;4139371;28;20030;-69
2021/09/13 06:03:27;;;;;;;22.67;8.73;;;21.10;98.60;;;;;;4141432;28;20030;-69
2021/09/13 06:05:29;;;;;;;25.13;8.38;;;21.40;98.20;;;;;;4141085;28;20192;-70
2021/09/13 06:07:30;;;;;;;20.52;8.13;;;21.50;98.10;;;;;;4140884;28;20085;-68
2021/09/13 06:09:32;;;;;;;25.77;8.25;;;21.70;97.80;;;;;;4140934;28;20034;-69
2021/09/13 06:11:33;;;;;;;24.50;8.20;;;21.80;97.60;;;;;;4142027;28;20469;-67
2021/09/13 06:13:35;;;;;;;26.98;8.05;;;22.10;97.10;;;;;;4141068;28;20038;-67
2021/09/13 06:15:36;;;;;;;23.77;9.13;;;22.20;96.70;;;;;;4142103;28;20025;-67
2021/09/13 06:17:37;;;;;;;21.00;8.85;;;22.30;96.60;;;;;;4141476;28;20100;-67
2021/09/13 06:19:38;;;;;;;24.55;8.63;;;22.30;96.20;;;;;;4141477;28;20510;-70
2021/09/13 06:21:39;;;;;;;23.60;8.02;;;22.50;96.30;;;;;;4141285;28;20041;-67
2021/09/13 06:23:42;;;;;;;23.50;9.00;;;22.50;96.00;;;;;;4141571;28;20037;-71
2021/09/13 06:25:44;;;;;;;21.65;9.02;;;22.40;95.70;;;;;;4141781;28;20038;-66
2021/09/13 06:27:45;;;;;;;25.63;9.13;;;22.40;95.70;;;;;;4141512;28;20050;-66
2021/09/13 06:29:46;;;;;;;31.05;9.55;;;22.20;95.50;;;;;;4141596;28;20080;-67
2021/09/13 06:31:48;;;;;;;21.52;9.38;;;22.10;95.80;;;;;;4140020;28;20564;-66
2021/09/13 06:33:49;;;;;;;26.05;10.13;;;22.50;95.70;;;;;;4141829;28;20037;-67
2021/09/13 06:35:51;;;;;;;23.02;9.48;;;22.60;95.30;;;;;;4141052;28;20038;-70
2021/09/13 06:37:52;;;;;;;20.52;9.98;;;22.80;95.20;;;;;;4142358;28;20112;-69
2021/09/13 06:39:58;;;;;;;22.60;10.05;;;23.20;95.10;;;;;;4141267;28;20048;-68
2021/09/13 06:41:59;;;;;;;18.85;10.15;;;23.40;94.50;;;;;;4141939;28;20068;-69
2021/09/13 06:44:00;;;;;;;28.55;11.88;;;23.50;94.20;;;;;;4140798;28;20025;-68
2021/09/13 06:46:13;;;;;;;27.95;12.20;;;23.40;93.90;;;;;;4141886;28;20462;-68
2021/09/13 06:48:15;;;;;;;25.40;12.10;;;23.20;94.10;;;;;;4141561;28;20080;-69
2021/09/13 06:50:19;;;;;;;28.75;12.25;;;23.30;94.20;;;;;;4141879;28;20021;-68
2021/09/13 06:52:20;;;;;;;24.60;11.65;;;23.20;93.80;;;;;;4140971;28;20088;-67
2021/09/13 06:54:21;;;;;;;19.80;10.82;;;23.30;94.00;;;;;;4141436;28;20088;-66
2021/09/13 06:56:22;;;;;;;18.48;9.48;;;23.60;93.80;;;;;;4141220;28;20406;-69
2021/09/13 06:58:24;;;;;;;24.38;10.23;;;23.90;93.50;;;;;;4141052;28;20042;-67
2021/09/13 07:00:25;;;;;;;28.63;10.45;;;24.00;93.40;;;;;;4139943;28;20069;-68
2021/09/13 07:02:26;;;;;;;26.23;11.63;;;24.00;93.30;;;;;;4139455;28;20526;-68
2021/09/13 07:04:29;;;;;;;21.75;11.55;;;24.10;93.00;;;;;;4140518;28;20171;-66
2021/09/13 07:06:30;;;;;;;21.45;9.38;;;24.00;93.20;;;;;;4140526;28;20048;-67
2021/09/13 07:08:32;;;;;;;26.98;12.20;;;23.90;92.90;;;;;;4141186;28;20092;-69
2021/09/13 07:10:33;;;;;;;18.48;9.90;;;23.80;93.00;;;;;;4140801;28;20449;-69
2021/09/13 07:12:36;;;;;;;25.52;11.90;;;23.50;93.20;;;;;;4140812;28;20050;-69
2021/09/13 07:14:37;;;;;;;29.73;12.07;;;23.30;93.30;;;;;;4140339;28;20038;-66
2021/09/13 07:16:38;;;;;;;21.83;10.00;;;23.40;93.50;;;;;;4141827;28;20173;-67
2021/09/13 07:18:39;;;;;;;20.38;9.93;;;23.60;93.30;;;;;;4141045;28;20121;-67
2021/09/13 07:20:41;;;;;;;17.98;9.40;;;23.90;92.90;;;;;;4141301;28;20629;-67
2021/09/13 07:22:42;;;;;;;27.17;10.27;;;23.80;92.90;;;;;;4140836;28;20462;-67
2021/09/13 07:24:44;;;;;;;24.45;10.88;;;23.80;93.00;;;;;;4141509;28;20104;-67
2021/09/13 07:26:47;;;;;;;24.95;10.43;;;23.50;92.80;;;;;;4140800;28;20136;-68
2021/09/13 07:28:48;;;;;;;27.52;11.27;;;23.00;93.40;;;;;;4140996;28;20022;-67
2021/09/13 07:30:49;;;;;;;32.33;10.38;;;22.70;93.70;;;;;;4140448;28;20034;-69
2021/09/13 07:32:50;;;;;;;32.00;10.60;;;22.30;94.20;;;;;;4140708;28;20045;-66
2021/09/13 07:34:52;;;;;;;28.90;10.93;;;22.00;94.70;;;;;;4140480;28;20046;-68
2021/09/13 07:36:55;;;;;;;21.85;9.80;;;22.00;94.80;;;;;;4140697;28;20065;-66
2021/09/13 07:38:57;;;;;;;24.10;9.05;;;22.00;94.80;;;;;;4140675;28;20490;-67
2021/09/13 07:40:58;;;;;;;26.70;8.63;;;22.10;94.70;;;;;;4140776;28;20021;-68
2021/09/13 07:42:59;;;;;;;30.33;9.13;;;22.30;94.50;;;;;;4140759;28;20088;-68
2021/09/13 07:45:02;;;;;;;28.50;8.40;;;22.30;94.60;;;;;;4139978;28;20089;-65
2021/09/13 07:47:04;;;;;;;18.17;6.45;;;22.60;94.30;;;;;;4141517;28;20030;-68
2021/09/13 07:49:05;;;;;;;22.70;9.13;;;22.80;94.00;;;;;;4139967;28;20100;-66
2021/09/13 07:51:06;;;;;;;23.20;9.18;;;23.20;93.80;;;;;;4140812;28;20372;-67
2021/09/13 07:53:07;;;;;;;18.08;8.00;;;23.20;93.50;;;;;;4140166;28;20583;-69
2021/09/13 07:55:08;;;;;;;20.80;7.75;;;22.90;93.70;;;;;;4140527;28;20033;-66
2021/09/13 07:57:09;;;;;;;17.98;9.00;;;22.60;94.20;;;;;;4139722;28;20425;-70
2021/09/13 07:59:11;;;;;;;21.90;9.38;;;22.60;94.30;;;;;;4140890;28;20080;-69
2021/09/13 08:01:12;;;;;;;16.70;8.07;;;22.60;94.40;;;;;;4140232;28;20026;-68
2021/09/13 08:03:13;;;;;;;21.15;8.65;;;22.40;94.50;;;;;;4138656;28;20046;-67
2021/09/13 08:05:14;;;;;;;25.13;9.27;;;22.30;94.60;;;;;;4139742;28;20045;-68
2021/09/13 08:07:15;;;;;;;17.55;8.32;;;22.30;94.70;;;;;;4140085;28;20045;-67
2021/09/13 08:09:16;;;;;;;14.57;7.63;;;22.30;94.80;;;;;;4140547;28;20546;-70
2021/09/13 08:11:18;;;;;;;18.63;7.88;;;22.40;94.50;;;;;;4140091;28;20092;-69
2021/09/13 08:13:19;;;;;;;23.13;8.55;;;22.70;94.30;;;;;;4140276;28;20100;-70
2021/09/13 08:15:23;;;;;;;18.58;8.63;;;23.00;94.10;;;;;;4139540;28;20060;-70
2021/09/13 08:17:24;;;;;;;15.57;8.07;;;22.80;94.00;;;;;;4140838;28;20473;-67
2021/09/13 08:19:25;;;;;;;16.15;8.57;;;22.60;94.40;;;;;;4139695;28;20038;-70
2021/09/13 08:21:27;;;;;;;28.13;8.48;;;22.50;94.50;;;;;;4140188;28;20091;-67
2021/09/13 08:23:33;;;;;;;14.05;7.68;;;22.50;94.50;;;;;;4139125;28;20179;-68
2021/09/13 08:25:34;;;;;;;20.80;8.13;;;22.70;94.70;;;;;;4138695;28;20580;-69
2021/09/13 08:27:35;;;;;;;19.27;7.57;;;23.10;94.30;;;;;;4139503;28;20022;-68
2021/09/13 08:29:36;;;;;;;10.18;6.32;;;23.10;94.20;;;;;;4139693;28;20026;-69
2021/09/13 08:31:38;;;;;;;16.65;7.53;;;23.00;94.30;;;;;;4139431;28;20030;-67
2021/09/13 08:33:40;;;;;;;15.93;6.28;;;23.10;94.20;;;;;;4139944;28;20042;-67
2021/09/13 08:35:41;;;;;;;15.88;6.18;;;23.00;94.10;;;;;;4139187;28;20494;-69
2021/09/13 08:37:42;;;;;;;16.25;6.22;;;23.10;94.10;;;;;;4139679;28;20383;-69
2021/09/13 08:39:43;;;;;;;12.00;6.18;;;22.90;94.20;;;;;;4139514;28;20092;-68
2021/09/13 08:41:45;;;;;;;16.88;5.93;;;22.70;94.40;;;;;;4139428;28;20034;-70
2021/09/13 08:43:48;;;;;;;11.90;6.65;;;22.80;94.60;;;;;;4139707;28;20026;-67
2021/09/13 08:46:02;;;;;;;11.48;6.15;;;22.70;94.40;;;;;;4136787;28;20080;-71
2021/09/13 08:50:23;;;;;;;20.38;5.82;;;22.70;94.60;;;;;;4138953;28;20026;-68
2021/09/13 08:52:24;;;;;;;13.00;6.65;;;22.90;94.40;;;;;;4139596;28;20049;-67
2021/09/13 08:54:29;;;;;;;12.65;6.53;;;23.10;94.20;;;;;;4138987;28;20033;-71
2021/09/13 08:56:41;;;;;;;10.68;5.30;;;23.10;94.00;;;;;;4139295;28;20030;-68
2021/09/13 08:58:44;;;;;;;15.32;5.50;;;23.20;94.00;;;;;;4138856;28;20017;-68
2021/09/13 09:00:46;;;;;;;16.40;5.68;;;23.60;93.70;;;;;;4139751;28;20690;-71
2021/09/13 09:02:48;;;;;;;11.90;5.50;;;23.80;93.50;;;;;;4139072;28;20038;-68
2021/09/13 09:04:49;;;;;;;12.70;5.47;;;23.70;93.30;;;;;;4139191;28;20049;-69
2021/09/13 09:06:51;;;;;;;11.93;5.32;;;23.50;93.40;;;;;;4138870;28;20072;-70
2021/09/13 09:09:02;;;;;;;14.38;5.90;;;23.60;93.40;;;;;;4139548;28;20026;-66
2021/09/13 09:11:05;;;;;;;10.02;4.88;;;23.60;93.30;;;;;;4138733;28;20026;-67
2021/09/13 09:13:13;;;;;;;7.45;5.13;;;23.80;93.20;;;;;;4137404;28;20084;-68
2021/09/13 09:15:14;;;;;;;10.00;5.07;;;23.70;93.10;;;;;;4138695;28;20445;-66
2021/09/13 09:17:25;;;;;;;10.35;5.05;;;23.50;93.30;;;;;;4139610;28;20037;-67
2021/09/13 09:19:26;;;;;;;;;;;23.60;93.30;;;;;;4139431;28;20422;-71
2021/09/13 09:21:33;;;;;;;8.95;4.63;;;23.50;93.10;;;;;;4138806;28;19909;-67
2021/09/13 09:23:57;;;;;;;13.70;5.47;;;23.50;93.30;;;;;;4138545;28;20592;-68
2021/09/13 09:26:12;;;;;;;8.25;4.15;;;23.50;93.00;;;;;;4139165;28;20030;-68
2021/09/13 09:28:18;;;;;;;12.13;4.50;;;23.70;93.10;;;;;;4138873;28;20080;-68
2021/09/13 09:30:20;;;;;;;16.38;5.00;;;24.20;93.10;;;;;;4138889;28;20025;-69
2021/09/13 09:32:27;;;;;;;7.93;4.00;;;24.30;92.90;;;;;;4138848;28;20371;-63
2021/09/13 09:34:33;;;;;;;6.57;4.82;;;24.40;92.60;;;;;;4138671;28;20080;-70
2021/09/13 09:36:34;;;;;;;10.43;4.22;;;24.70;92.50;;;;;;4138565;28;20018;-68
2021/09/13 09:38:38;;;;;;;13.77;5.43;;;25.10;92.20;;;;;;4139177;28;20089;-69
2021/09/13 09:40:39;;;;;;;9.40;5.20;;;25.20;91.80;;;;;;4138696;28;20069;-70
2021/09/13 09:42:40;;;;;;;12.27;5.18;;;25.10;91.60;;;;;;4137513;28;20054;-68
2021/09/13 09:44:45;;;;;;;12.18;4.85;;;24.80;91.60;;;;;;4138782;28;20088;-67
2021/09/13 09:46:47;;;;;;;9.75;4.45;;;24.80;91.80;;;;;;4138583;28;20599;-69
2021/09/13 09:48:48;;;;;;;14.15;4.30;;;24.80;91.80;;;;;;4138617;28;20053;-67
2021/09/13 09:50:49;;;;;;;9.98;5.00;;;24.70;91.80;;;;;;4138713;28;20088;-69
2021/09/13 09:52:54;;;;;;;10.05;4.70;;;24.80;91.50;;;;;;4138830;28;20506;-69
2021/09/13 09:55:16;;;;;;;13.45;4.88;;;24.70;91.30;;;;;;4138093;28;20037;-66
2021/09/13 09:57:21;;;;;;;13.88;4.72;;;24.70;91.10;;;;;;4139032;28;20026;-68
2021/09/13 09:59:22;;;;;;;7.90;4.50;;;24.70;91.20;;;;;;4138481;28;20801;-67
2021/09/13 10:01:33;;;;;;;8.75;3.95;;;24.70;91.20;;;;;;4139716;28;20406;-68
2021/09/13 10:03:34;;;;;;;8.85;4.47;;;24.80;91.20;;;;;;4137859;28;20030;-66
2021/09/13 10:05:36;;;;;;;9.07;3.95;;;24.90;91.20;;;;;;4138822;28;20640;-67
2021/09/13 10:07:40;;;;;;;14.43;4.78;;;24.70;91.30;;;;;;4138043;28;20627;-70
2021/09/13 10:09:42;;;;;;;11.30;4.40;;;24.40;91.40;;;;;;4138571;28;20453;-71
2021/09/13 10:11:45;;;;;;;11.00;4.90;;;24.40;91.50;;;;;;4138038;28;20426;-70
2021/09/13 10:13:46;;;;;;;9.35;4.60;;;24.40;91.60;;;;;;4138583;28;20042;-68
2021/09/13 10:15:48;;;;;;;8.30;5.43;;;24.40;91.80;;;;;;4137903;28;20077;-68
2021/09/13 10:17:49;;;;;;;9.57;5.30;;;24.40;91.90;;;;;;4138338;28;20088;-68
2021/09/13 10:19:50;;;;;;;8.50;5.30;;;24.30;92.20;;;;;;4137713;28;20459;-69
2021/09/13 10:21:53;;;;;;;8.93;5.50;;;24.20;92.20;;;;;;4138059;28;20026;-69
2021/09/13 10:23:54;;;;;;;7.68;4.03;;;24.30;92.20;;;;;;4138116;28;20807;-67
2021/09/13 10:25:55;;;;;;;7.75;4.53;;;24.20;92.20;;;;;;4137377;28;20041;-66
2021/09/13 10:28:05;;;;;;;6.10;4.18;;;24.20;92.00;;;;;;4138780;28;20014;-68
2021/09/13 10:30:12;;;;;;;7.82;4.07;;;24.30;91.60;;;;;;4138466;28;20557;-70
2021/09/13 10:32:14;;;;;;;7.35;4.40;;;24.40;91.80;;;;;;4138887;28;20469;-71